sensor_id;sensor_type;location;lat;lon;timestamp;P1;durP1;ratioP1;P2;durP2;ratioP2
49372;SDS011;44113;38.408;-122.974;2022-10-31T00:00:46;4.47;;;2.00;;
49372;SDS011;44113;38.408;-122.974;2022-10-31T00:03:13;7.32;;;2.10;;
49372;SDS011;44113;38.408;-122.974;2022-10-31T00:05:41;6.97;;;2.13;;
49372;SDS011;44113;38.408;-122.974;2022-10-31T00:08:12;5.63;;;1.55;;
49372;SDS011;44113;38.408;-122.974;2022-10-31T00:10:39;7.25;;;1.40;;
49372;SDS011;44113;38.408;-122.974;2022-10-31T00:13:07;5.57;;;2.42;;
49372;SDS011;44113;38.408;-122.974;2022-10-31T00:15:34;4.57;;;1.83;;
49372;SDS011;44113;38.408;-122.974;2022-10-31T00:18:02;5.60;;;2.13;;
49372;SDS011;44113;38.408;-122.974;2022-10-31T00:20:29;4.40;;;2.50;;
49372;SDS011;44113;38.408;-122.974;2022-10-31T00:23:00;6.53;;;1.60;;
49372;SDS011;44113;38.408;-122.974;2022-10-31T00:25:27;6.00;;;1.88;;
49372;SDS011;44113;38.408;-122.974;2022-10-31T00:27:54;2.97;;;1.45;;
49372;SDS011;44113;38.408;-122.974;2022-10-31T00:30:21;3.30;;;1.85;;
49372;SDS011;44113;38.408;-122.974;2022-10-31T00:32:47;2.78;;;1.77;;
49372;SDS011;44113;38.408;-122.974;2022-10-31T00:35:14;4.43;;;1.63;;
49372;SDS011;44113;38.408;-122.974;2022-10-31T00:37:40;4.55;;;1.42;;
49372;SDS011;44113;38.408;-122.974;2022-10-31T00:40:08;3.78;;;1.83;;
49372;SDS011;44113;38.408;-122.974;2022-10-31T00:42:35;4.45;;;2.30;;
49372;SDS011;44113;38.408;-122.974;2022-10-31T00:45:04;7.20;;;1.90;;
49372;SDS011;44113;38.408;-122.974;2022-10-31T00:47:30;2.70;;;1.35;;
49372;SDS011;44113;38.408;-122.974;2022-10-31T00:49:57;2.55;;;1.20;;
49372;SDS011;44113;38.408;-122.974;2022-10-31T00:52:23;3.97;;;1.88;;
49372;SDS011;44113;38.408;-122.974;2022-10-31T00:54:50;3.63;;;1.95;;
49372;SDS011;44113;38.408;-122.974;2022-10-31T00:57:17;5.03;;;1.63;;
49372;SDS011;44113;38.408;-122.974;2022-10-31T00:59:44;4.25;;;1.23;;
49372;SDS011;44113;38.408;-122.974;2022-10-31T01:02:11;4.65;;;1.05;;
49372;SDS011;44113;38.408;-122.974;2022-10-31T01:04:39;2.92;;;1.10;;
49372;SDS011;44113;38.408;-122.974;2022-10-31T01:07:06;3.53;;;1.60;;
49372;SDS011;44113;38.408;-122.974;2022-10-31T01:09:32;4.38;;;1.10;;
49372;SDS011;44113;38.408;-122.974;2022-10-31T01:11:59;5.55;;;1.33;;
49372;SDS011;44113;38.408;-122.974;2022-10-31T01:14:25;2.58;;;0.95;;
49372;SDS011;44113;38.408;-122.974;2022-10-31T01:16:53;2.65;;;1.13;;
49372;SDS011;44113;38.408;-122.974;2022-10-31T01:19:19;4.60;;;0.90;;
49372;SDS011;44113;38.408;-122.974;2022-10-31T01:21:46;2.72;;;1.83;;
49372;SDS011;44113;38.408;-122.974;2022-10-31T01:24:12;2.35;;;0.73;;
49372;SDS011;44113;38.408;-122.974;2022-10-31T01:26:38;3.15;;;1.58;;
49372;SDS011;44113;38.408;-122.974;2022-10-31T01:29:06;2.45;;;1.33;;
49372;SDS011;44113;38.408;-122.974;2022-10-31T01:31:34;2.95;;;0.98;;
49372;SDS011;44113;38.408;-122.974;2022-10-31T01:34:02;3.33;;;1.08;;
49372;SDS011;44113;38.408;-122.974;2022-10-31T01:36:34;7.63;;;1.52;;
49372;SDS011;44113;38.408;-122.974;2022-10-31T01:39:04;8.27;;;1.73;;
49372;SDS011;44113;38.408;-122.974;2022-10-31T01:41:33;9.45;;;2.08;;
49372;SDS011;44113;38.408;-122.974;2022-10-31T01:44:03;7.22;;;2.45;;
49372;SDS011;44113;38.408;-122.974;2022-10-31T01:46:40;6.25;;;2.65;;
49372;SDS011;44113;38.408;-122.974;2022-10-31T01:49:11;7.75;;;1.30;;
49372;SDS011;44113;38.408;-122.974;2022-10-31T01:51:46;6.50;;;2.53;;
49372;SDS011;44113;38.408;-122.974;2022-10-31T01:54:17;4.97;;;1.65;;
49372;SDS011;44113;38.408;-122.974;2022-10-31T01:56:50;3.15;;;1.38;;
49372;SDS011;44113;38.408;-122.974;2022-10-31T01:59:19;3.92;;;1.42;;
49372;SDS011;44113;38.408;-122.974;2022-10-31T02:01:47;6.15;;;1.73;;
49372;SDS011;44113;38.408;-122.974;2022-10-31T02:04:17;7.18;;;1.20;;
49372;SDS011;44113;38.408;-122.974;2022-10-31T02:09:31;5.05;;;0.88;;
49372;SDS011;44113;38.408;-122.974;2022-10-31T02:12:00;4.07;;;1.25;;
49372;SDS011;44113;38.408;-122.974;2022-10-31T02:14:28;9.80;;;2.03;;
49372;SDS011;44113;38.408;-122.974;2022-10-31T02:16:57;10.55;;;1.67;;
49372;SDS011;44113;38.408;-122.974;2022-10-31T02:20:12;5.10;;;1.23;;
49372;SDS011;44113;38.408;-122.974;2022-10-31T02:27:47;3.75;;;2.17;;
49372;SDS011;44113;38.408;-122.974;2022-10-31T02:36:25;5.63;;;1.90;;
49372;SDS011;44113;38.408;-122.974;2022-10-31T02:47:23;5.38;;;1.05;;
49372;SDS011;44113;38.408;-122.974;2022-10-31T02:49:57;5.80;;;2.33;;
49372;SDS011;44113;38.408;-122.974;2022-10-31T02:52:33;2.10;;;0.90;;
49372;SDS011;44113;38.408;-122.974;2022-10-31T02:55:11;7.53;;;1.00;;
49372;SDS011;44113;38.408;-122.974;2022-10-31T02:58:00;6.90;;;1.30;;
49372;SDS011;44113;38.408;-122.974;2022-10-31T03:01:20;3.80;;;0.90;;
49372;SDS011;44113;38.408;-122.974;2022-10-31T03:09:46;3.85;;;1.17;;
49372;SDS011;44113;38.408;-122.974;2022-10-31T03:15:01;5.78;;;0.95;;
49372;SDS011;44113;38.408;-122.974;2022-10-31T03:17:35;3.97;;;1.05;;
49372;SDS011;44113;38.408;-122.974;2022-10-31T03:20:06;3.45;;;1.23;;
49372;SDS011;44113;38.408;-122.974;2022-10-31T03:22:36;3.00;;;1.17;;
49372;SDS011;44113;38.408;-122.974;2022-10-31T03:25:06;3.42;;;0.90;;
49372;SDS011;44113;38.408;-122.974;2022-10-31T03:27:34;6.47;;;1.13;;
49372;SDS011;44113;38.408;-122.974;2022-10-31T03:30:04;3.13;;;0.70;;
49372;SDS011;44113;38.408;-122.974;2022-10-31T03:35:02;3.88;;;1.23;;
49372;SDS011;44113;38.408;-122.974;2022-10-31T03:37:34;7.45;;;1.45;;
49372;SDS011;44113;38.408;-122.974;2022-10-31T03:40:02;12.38;;;1.27;;
49372;SDS011;44113;38.408;-122.974;2022-10-31T03:42:33;11.63;;;1.00;;
49372;SDS011;44113;38.408;-122.974;2022-10-31T03:47:35;13.55;;;1.60;;
49372;SDS011;44113;38.408;-122.974;2022-10-31T03:50:04;25.33;;;2.25;;
49372;SDS011;44113;38.408;-122.974;2022-10-31T03:57:51;13.32;;;1.67;;
49372;SDS011;44113;38.408;-122.974;2022-10-31T04:00:19;13.02;;;2.70;;
49372;SDS011;44113;38.408;-122.974;2022-10-31T04:02:53;17.05;;;2.88;;
49372;SDS011;44113;38.408;-122.974;2022-10-31T04:05:25;23.35;;;2.88;;
49372;SDS011;44113;38.408;-122.974;2022-10-31T04:07:55;23.58;;;3.25;;
49372;SDS011;44113;38.408;-122.974;2022-10-31T04:10:23;37.63;;;3.95;;
49372;SDS011;44113;38.408;-122.974;2022-10-31T04:12:55;15.98;;;2.20;;
49372;SDS011;44113;38.408;-122.974;2022-10-31T04:15:30;22.90;;;2.92;;
49372;SDS011;44113;38.408;-122.974;2022-10-31T04:17:58;12.07;;;2.28;;
49372;SDS011;44113;38.408;-122.974;2022-10-31T04:20:33;18.05;;;2.75;;
49372;SDS011;44113;38.408;-122.974;2022-10-31T04:23:01;9.68;;;2.47;;
49372;SDS011;44113;38.408;-122.974;2022-10-31T04:25:28;15.77;;;2.65;;
49372;SDS011;44113;38.408;-122.974;2022-10-31T04:27:55;13.40;;;1.92;;
49372;SDS011;44113;38.408;-122.974;2022-10-31T04:30:21;9.38;;;1.98;;
49372;SDS011;44113;38.408;-122.974;2022-10-31T04:32:48;17.58;;;2.67;;
49372;SDS011;44113;38.408;-122.974;2022-10-31T04:35:14;13.40;;;3.42;;
49372;SDS011;44113;38.408;-122.974;2022-10-31T04:37:41;12.68;;;1.00;;
49372;SDS011;44113;38.408;-122.974;2022-10-31T04:40:07;17.17;;;1.55;;
49372;SDS011;44113;38.408;-122.974;2022-10-31T04:42:34;20.05;;;2.65;;
49372;SDS011;44113;38.408;-122.974;2022-10-31T04:45:01;11.20;;;1.48;;
49372;SDS011;44113;38.408;-122.974;2022-10-31T04:47:30;9.90;;;1.85;;
49372;SDS011;44113;38.408;-122.974;2022-10-31T04:49:58;15.10;;;1.75;;
49372;SDS011;44113;38.408;-122.974;2022-10-31T04:52:25;12.40;;;1.48;;
49372;SDS011;44113;38.408;-122.974;2022-10-31T04:54:51;10.60;;;1.60;;
49372;SDS011;44113;38.408;-122.974;2022-10-31T04:57:17;9.50;;;1.60;;
49372;SDS011;44113;38.408;-122.974;2022-10-31T04:59:44;8.38;;;1.05;;
49372;SDS011;44113;38.408;-122.974;2022-10-31T05:02:10;6.85;;;0.90;;
49372;SDS011;44113;38.408;-122.974;2022-10-31T05:04:38;14.38;;;1.92;;
49372;SDS011;44113;38.408;-122.974;2022-10-31T05:07:04;15.07;;;1.50;;
49372;SDS011;44113;38.408;-122.974;2022-10-31T05:09:31;7.25;;;2.15;;
49372;SDS011;44113;38.408;-122.974;2022-10-31T05:11:57;6.57;;;1.75;;
49372;SDS011;44113;38.408;-122.974;2022-10-31T05:14:24;9.85;;;1.60;;
49372;SDS011;44113;38.408;-122.974;2022-10-31T05:16:51;8.52;;;2.22;;
49372;SDS011;44113;38.408;-122.974;2022-10-31T05:19:18;6.35;;;1.20;;
49372;SDS011;44113;38.408;-122.974;2022-10-31T05:21:44;9.73;;;1.42;;
49372;SDS011;44113;38.408;-122.974;2022-10-31T05:24:11;9.30;;;1.35;;
49372;SDS011;44113;38.408;-122.974;2022-10-31T05:26:38;6.30;;;2.20;;
49372;SDS011;44113;38.408;-122.974;2022-10-31T05:29:05;8.60;;;2.20;;
49372;SDS011;44113;38.408;-122.974;2022-10-31T05:31:31;3.85;;;1.25;;
49372;SDS011;44113;38.408;-122.974;2022-10-31T05:33:58;13.82;;;1.95;;
49372;SDS011;44113;38.408;-122.974;2022-10-31T05:36:25;7.22;;;1.77;;
49372;SDS011;44113;38.408;-122.974;2022-10-31T05:38:51;5.53;;;0.82;;
49372;SDS011;44113;38.408;-122.974;2022-10-31T05:41:17;4.15;;;2.13;;
49372;SDS011;44113;38.408;-122.974;2022-10-31T05:43:44;8.20;;;0.82;;
49372;SDS011;44113;38.408;-122.974;2022-10-31T05:46:12;3.75;;;0.70;;
49372;SDS011;44113;38.408;-122.974;2022-10-31T05:48:38;4.15;;;1.13;;
49372;SDS011;44113;38.408;-122.974;2022-10-31T05:51:05;7.80;;;1.02;;
49372;SDS011;44113;38.408;-122.974;2022-10-31T05:53:31;7.53;;;1.63;;
49372;SDS011;44113;38.408;-122.974;2022-10-31T05:55:58;4.70;;;0.80;;
49372;SDS011;44113;38.408;-122.974;2022-10-31T05:58:24;7.03;;;1.40;;
49372;SDS011;44113;38.408;-122.974;2022-10-31T06:00:50;2.83;;;0.70;;
49372;SDS011;44113;38.408;-122.974;2022-10-31T06:03:18;5.72;;;1.02;;
49372;SDS011;44113;38.408;-122.974;2022-10-31T06:05:44;3.75;;;0.85;;
49372;SDS011;44113;38.408;-122.974;2022-10-31T06:08:11;10.73;;;1.70;;
49372;SDS011;44113;38.408;-122.974;2022-10-31T06:10:37;7.65;;;1.83;;
49372;SDS011;44113;38.408;-122.974;2022-10-31T06:13:03;4.85;;;1.48;;
49372;SDS011;44113;38.408;-122.974;2022-10-31T06:15:31;8.10;;;1.55;;
49372;SDS011;44113;38.408;-122.974;2022-10-31T06:18:07;7.90;;;0.95;;
49372;SDS011;44113;38.408;-122.974;2022-10-31T06:20:34;4.88;;;1.48;;
49372;SDS011;44113;38.408;-122.974;2022-10-31T06:23:00;6.40;;;1.30;;
49372;SDS011;44113;38.408;-122.974;2022-10-31T06:25:27;4.03;;;1.35;;
49372;SDS011;44113;38.408;-122.974;2022-10-31T06:27:54;7.30;;;1.95;;
49372;SDS011;44113;38.408;-122.974;2022-10-31T06:30:21;2.63;;;1.13;;
49372;SDS011;44113;38.408;-122.974;2022-10-31T06:32:47;5.57;;;1.40;;
49372;SDS011;44113;38.408;-122.974;2022-10-31T06:35:15;2.00;;;0.80;;
49372;SDS011;44113;38.408;-122.974;2022-10-31T06:37:41;5.38;;;1.20;;
49372;SDS011;44113;38.408;-122.974;2022-10-31T06:40:08;4.65;;;1.20;;
49372;SDS011;44113;38.408;-122.974;2022-10-31T06:42:35;5.80;;;1.17;;
49372;SDS011;44113;38.408;-122.974;2022-10-31T06:45:01;4.60;;;1.17;;
49372;SDS011;44113;38.408;-122.974;2022-10-31T06:47:27;5.40;;;1.55;;
49372;SDS011;44113;38.408;-122.974;2022-10-31T06:49:54;5.18;;;1.42;;
49372;SDS011;44113;38.408;-122.974;2022-10-31T06:52:20;6.25;;;1.80;;
49372;SDS011;44113;38.408;-122.974;2022-10-31T06:54:48;4.05;;;1.77;;
49372;SDS011;44113;38.408;-122.974;2022-10-31T06:57:15;4.10;;;1.17;;
49372;SDS011;44113;38.408;-122.974;2022-10-31T06:59:41;4.80;;;1.50;;
49372;SDS011;44113;38.408;-122.974;2022-10-31T07:02:10;4.40;;;2.05;;
49372;SDS011;44113;38.408;-122.974;2022-10-31T07:04:37;3.38;;;0.80;;
49372;SDS011;44113;38.408;-122.974;2022-10-31T07:07:04;12.48;;;2.17;;
49372;SDS011;44113;38.408;-122.974;2022-10-31T07:09:30;2.80;;;1.00;;
49372;SDS011;44113;38.408;-122.974;2022-10-31T07:11:57;9.68;;;2.55;;
49372;SDS011;44113;38.408;-122.974;2022-10-31T07:14:24;3.28;;;1.48;;
49372;SDS011;44113;38.408;-122.974;2022-10-31T07:16:50;3.92;;;1.15;;
49372;SDS011;44113;38.408;-122.974;2022-10-31T07:19:17;6.18;;;1.90;;
49372;SDS011;44113;38.408;-122.974;2022-10-31T07:21:43;4.63;;;1.52;;
49372;SDS011;44113;38.408;-122.974;2022-10-31T07:24:10;7.85;;;2.38;;
49372;SDS011;44113;38.408;-122.974;2022-10-31T07:26:36;6.38;;;1.33;;
49372;SDS011;44113;38.408;-122.974;2022-10-31T07:29:02;4.72;;;1.13;;
49372;SDS011;44113;38.408;-122.974;2022-10-31T07:31:29;7.47;;;1.52;;
49372;SDS011;44113;38.408;-122.974;2022-10-31T07:33:55;3.10;;;1.15;;
49372;SDS011;44113;38.408;-122.974;2022-10-31T07:36:22;6.95;;;0.77;;
49372;SDS011;44113;38.408;-122.974;2022-10-31T07:38:49;2.65;;;1.17;;
49372;SDS011;44113;38.408;-122.974;2022-10-31T07:41:15;4.80;;;1.42;;
49372;SDS011;44113;38.408;-122.974;2022-10-31T07:43:42;3.75;;;1.00;;
49372;SDS011;44113;38.408;-122.974;2022-10-31T07:46:08;1.85;;;0.70;;
49372;SDS011;44113;38.408;-122.974;2022-10-31T07:48:36;1.42;;;0.57;;
49372;SDS011;44113;38.408;-122.974;2022-10-31T07:51:02;3.42;;;1.35;;
49372;SDS011;44113;38.408;-122.974;2022-10-31T07:53:30;2.45;;;0.70;;
49372;SDS011;44113;38.408;-122.974;2022-10-31T07:55:56;4.85;;;0.60;;
49372;SDS011;44113;38.408;-122.974;2022-10-31T07:58:22;4.88;;;1.25;;
49372;SDS011;44113;38.408;-122.974;2022-10-31T08:00:50;1.98;;;0.80;;
49372;SDS011;44113;38.408;-122.974;2022-10-31T08:03:17;2.78;;;0.70;;
49372;SDS011;44113;38.408;-122.974;2022-10-31T08:05:44;1.95;;;1.00;;
49372;SDS011;44113;38.408;-122.974;2022-10-31T08:08:11;3.03;;;1.05;;
49372;SDS011;44113;38.408;-122.974;2022-10-31T08:10:39;1.88;;;1.05;;
49372;SDS011;44113;38.408;-122.974;2022-10-31T08:13:06;2.75;;;0.82;;
49372;SDS011;44113;38.408;-122.974;2022-10-31T08:15:34;2.03;;;1.27;;
49372;SDS011;44113;38.408;-122.974;2022-10-31T08:18:13;2.13;;;0.65;;
49372;SDS011;44113;38.408;-122.974;2022-10-31T08:20:40;2.67;;;1.02;;
49372;SDS011;44113;38.408;-122.974;2022-10-31T08:23:09;4.05;;;0.80;;
49372;SDS011;44113;38.408;-122.974;2022-10-31T08:25:36;1.95;;;1.05;;
49372;SDS011;44113;38.408;-122.974;2022-10-31T08:28:03;4.95;;;1.15;;
49372;SDS011;44113;38.408;-122.974;2022-10-31T08:30:32;3.55;;;1.75;;
49372;SDS011;44113;38.408;-122.974;2022-10-31T08:33:01;3.92;;;1.50;;
49372;SDS011;44113;38.408;-122.974;2022-10-31T08:35:31;1.60;;;0.82;;
49372;SDS011;44113;38.408;-122.974;2022-10-31T08:37:59;2.38;;;1.52;;
49372;SDS011;44113;38.408;-122.974;2022-10-31T08:40:26;3.30;;;1.08;;
49372;SDS011;44113;38.408;-122.974;2022-10-31T08:43:16;2.53;;;0.68;;
49372;SDS011;44113;38.408;-122.974;2022-10-31T08:45:42;2.97;;;1.08;;
49372;SDS011;44113;38.408;-122.974;2022-10-31T08:48:10;4.47;;;0.90;;
49372;SDS011;44113;38.408;-122.974;2022-10-31T08:50:38;2.92;;;0.80;;
49372;SDS011;44113;38.408;-122.974;2022-10-31T08:53:06;2.10;;;0.82;;
49372;SDS011;44113;38.408;-122.974;2022-10-31T08:55:38;3.92;;;1.10;;
49372;SDS011;44113;38.408;-122.974;2022-10-31T08:58:06;1.58;;;0.77;;
49372;SDS011;44113;38.408;-122.974;2022-10-31T09:00:35;6.00;;;1.15;;
49372;SDS011;44113;38.408;-122.974;2022-10-31T09:03:03;3.45;;;0.80;;
49372;SDS011;44113;38.408;-122.974;2022-10-31T09:05:31;8.60;;;1.98;;
49372;SDS011;44113;38.408;-122.974;2022-10-31T09:07:59;3.67;;;0.90;;
49372;SDS011;44113;38.408;-122.974;2022-10-31T09:10:27;3.63;;;0.80;;
49372;SDS011;44113;38.408;-122.974;2022-10-31T09:12:55;4.47;;;0.65;;
49372;SDS011;44113;38.408;-122.974;2022-10-31T09:15:22;9.85;;;1.33;;
49372;SDS011;44113;38.408;-122.974;2022-10-31T09:17:51;6.60;;;1.27;;
49372;SDS011;44113;38.408;-122.974;2022-10-31T09:20:19;4.45;;;1.20;;
49372;SDS011;44113;38.408;-122.974;2022-10-31T09:22:46;5.05;;;0.65;;
49372;SDS011;44113;38.408;-122.974;2022-10-31T09:25:13;5.78;;;2.00;;
49372;SDS011;44113;38.408;-122.974;2022-10-31T09:27:39;3.30;;;1.38;;
49372;SDS011;44113;38.408;-122.974;2022-10-31T09:30:06;4.63;;;1.02;;
49372;SDS011;44113;38.408;-122.974;2022-10-31T09:32:33;4.10;;;1.02;;
49372;SDS011;44113;38.408;-122.974;2022-10-31T09:35:00;7.03;;;1.60;;
49372;SDS011;44113;38.408;-122.974;2022-10-31T09:37:27;5.82;;;1.02;;
49372;SDS011;44113;38.408;-122.974;2022-10-31T09:39:54;3.63;;;0.80;;
49372;SDS011;44113;38.408;-122.974;2022-10-31T09:45:07;3.20;;;0.75;;
49372;SDS011;44113;38.408;-122.974;2022-10-31T09:47:44;6.53;;;1.38;;
49372;SDS011;44113;38.408;-122.974;2022-10-31T09:50:15;5.33;;;0.83;;
49372;SDS011;44113;38.408;-122.974;2022-10-31T09:52:54;8.43;;;1.08;;
49372;SDS011;44113;38.408;-122.974;2022-10-31T09:55:38;5.32;;;1.02;;
49372;SDS011;44113;38.408;-122.974;2022-10-31T09:58:18;7.60;;;1.23;;
49372;SDS011;44113;38.408;-122.974;2022-10-31T10:00:48;3.17;;;0.93;;
49372;SDS011;44113;38.408;-122.974;2022-10-31T10:06:02;3.15;;;1.50;;
49372;SDS011;44113;38.408;-122.974;2022-10-31T10:08:48;2.42;;;1.40;;
49372;SDS011;44113;38.408;-122.974;2022-10-31T10:11:41;4.10;;;0.93;;
49372;SDS011;44113;38.408;-122.974;2022-10-31T10:14:26;3.88;;;1.15;;
49372;SDS011;44113;38.408;-122.974;2022-10-31T10:17:16;4.05;;;0.88;;
49372;SDS011;44113;38.408;-122.974;2022-10-31T10:20:09;2.50;;;0.85;;
49372;SDS011;44113;38.408;-122.974;2022-10-31T10:25:22;4.72;;;0.85;;
49372;SDS011;44113;38.408;-122.974;2022-10-31T10:30:57;5.43;;;1.40;;
49372;SDS011;44113;38.408;-122.974;2022-10-31T10:33:39;2.90;;;0.90;;
49372;SDS011;44113;38.408;-122.974;2022-10-31T10:36:31;2.25;;;0.80;;
49372;SDS011;44113;38.408;-122.974;2022-10-31T10:41:49;5.20;;;0.80;;
49372;SDS011;44113;38.408;-122.974;2022-10-31T10:44:38;2.15;;;0.88;;
49372;SDS011;44113;38.408;-122.974;2022-10-31T10:47:31;4.05;;;1.20;;
49372;SDS011;44113;38.408;-122.974;2022-10-31T10:50:10;4.60;;;2.15;;
49372;SDS011;44113;38.408;-122.974;2022-10-31T10:58:07;2.72;;;1.35;;
49372;SDS011;44113;38.408;-122.974;2022-10-31T11:00:40;6.30;;;1.45;;
49372;SDS011;44113;38.408;-122.974;2022-10-31T11:03:08;6.15;;;1.55;;
49372;SDS011;44113;38.408;-122.974;2022-10-31T11:08:24;2.42;;;1.00;;
49372;SDS011;44113;38.408;-122.974;2022-10-31T11:13:39;2.92;;;0.50;;
49372;SDS011;44113;38.408;-122.974;2022-10-31T11:16:13;3.00;;;0.80;;
49372;SDS011;44113;38.408;-122.974;2022-10-31T11:18:52;3.50;;;1.45;;
49372;SDS011;44113;38.408;-122.974;2022-10-31T11:21:30;3.30;;;1.63;;
49372;SDS011;44113;38.408;-122.974;2022-10-31T11:24:17;6.35;;;1.70;;
49372;SDS011;44113;38.408;-122.974;2022-10-31T11:26:46;1.92;;;1.20;;
49372;SDS011;44113;38.408;-122.974;2022-10-31T11:29:20;4.18;;;1.20;;
49372;SDS011;44113;38.408;-122.974;2022-10-31T11:31:53;2.17;;;1.13;;
49372;SDS011;44113;38.408;-122.974;2022-10-31T11:37:21;2.67;;;1.20;;
49372;SDS011;44113;38.408;-122.974;2022-10-31T11:40:01;2.80;;;1.08;;
49372;SDS011;44113;38.408;-122.974;2022-10-31T11:42:40;3.85;;;1.73;;
49372;SDS011;44113;38.408;-122.974;2022-10-31T11:48:02;4.10;;;1.02;;
49372;SDS011;44113;38.408;-122.974;2022-10-31T11:50:40;1.88;;;1.25;;
49372;SDS011;44113;38.408;-122.974;2022-10-31T11:53:14;1.90;;;0.68;;
49372;SDS011;44113;38.408;-122.974;2022-10-31T11:55:44;4.72;;;1.60;;
49372;SDS011;44113;38.408;-122.974;2022-10-31T11:58:24;2.17;;;1.13;;
49372;SDS011;44113;38.408;-122.974;2022-10-31T12:00:55;4.50;;;1.13;;
49372;SDS011;44113;38.408;-122.974;2022-10-31T12:05:51;2.17;;;1.40;;
49372;SDS011;44113;38.408;-122.974;2022-10-31T12:08:19;3.15;;;1.55;;
49372;SDS011;44113;38.408;-122.974;2022-10-31T12:13:48;5.68;;;1.95;;
49372;SDS011;44113;38.408;-122.974;2022-10-31T12:18:58;2.58;;;0.88;;
49372;SDS011;44113;38.408;-122.974;2022-10-31T12:24:50;4.53;;;0.95;;
49372;SDS011;44113;38.408;-122.974;2022-10-31T12:30:17;3.55;;;1.10;;
49372;SDS011;44113;38.408;-122.974;2022-10-31T12:32:55;3.20;;;1.05;;
49372;SDS011;44113;38.408;-122.974;2022-10-31T12:54:39;4.13;;;1.55;;
49372;SDS011;44113;38.408;-122.974;2022-10-31T12:57:23;3.50;;;1.42;;
49372;SDS011;44113;38.408;-122.974;2022-10-31T13:02:36;2.85;;;0.93;;
49372;SDS011;44113;38.408;-122.974;2022-10-31T13:05:17;1.95;;;1.25;;
49372;SDS011;44113;38.408;-122.974;2022-10-31T13:13:19;2.30;;;1.42;;
49372;SDS011;44113;38.408;-122.974;2022-10-31T13:16:09;2.15;;;0.82;;
49372;SDS011;44113;38.408;-122.974;2022-10-31T13:18:55;2.55;;;0.85;;
49372;SDS011;44113;38.408;-122.974;2022-10-31T13:24:49;2.80;;;0.68;;
49372;SDS011;44113;38.408;-122.974;2022-10-31T13:27:23;2.88;;;1.02;;
49372;SDS011;44113;38.408;-122.974;2022-10-31T13:30:10;1.95;;;0.80;;
49372;SDS011;44113;38.408;-122.974;2022-10-31T13:32:46;2.30;;;1.00;;
49372;SDS011;44113;38.408;-122.974;2022-10-31T13:41:13;2.85;;;1.17;;
49372;SDS011;44113;38.408;-122.974;2022-10-31T13:46:55;5.32;;;0.80;;
49372;SDS011;44113;38.408;-122.974;2022-10-31T13:54:52;3.13;;;1.02;;
49372;SDS011;44113;38.408;-122.974;2022-10-31T14:00:42;1.60;;;0.75;;
49372;SDS011;44113;38.408;-122.974;2022-10-31T14:02:52;5.03;;;1.50;;
49372;SDS011;44113;38.408;-122.974;2022-10-31T14:07:49;1.55;;;0.75;;
49372;SDS011;44113;38.408;-122.974;2022-10-31T14:15:40;2.60;;;1.15;;
49372;SDS011;44113;38.408;-122.974;2022-10-31T14:18:25;3.70;;;0.75;;
49372;SDS011;44113;38.408;-122.974;2022-10-31T14:20:59;2.97;;;0.90;;
49372;SDS011;44113;38.408;-122.974;2022-10-31T14:28:54;3.40;;;1.00;;
49372;SDS011;44113;38.408;-122.974;2022-10-31T14:45:05;3.03;;;1.27;;
49372;SDS011;44113;38.408;-122.974;2022-10-31T14:48:06;4.78;;;1.38;;
49372;SDS011;44113;38.408;-122.974;2022-10-31T14:50:58;2.53;;;0.80;;
49372;SDS011;44113;38.408;-122.974;2022-10-31T14:53:28;1.60;;;0.85;;
49372;SDS011;44113;38.408;-122.974;2022-10-31T14:55:58;4.40;;;1.15;;
49372;SDS011;44113;38.408;-122.974;2022-10-31T14:58:39;2.67;;;0.70;;
49372;SDS011;44113;38.408;-122.974;2022-10-31T15:01:30;2.38;;;1.13;;
49372;SDS011;44113;38.408;-122.974;2022-10-31T15:04:12;1.45;;;0.75;;
49372;SDS011;44113;38.408;-122.974;2022-10-31T15:06:46;2.22;;;1.30;;
49372;SDS011;44113;38.408;-122.974;2022-10-31T15:09:27;3.25;;;1.13;;
49372;SDS011;44113;38.408;-122.974;2022-10-31T15:11:55;2.35;;;1.20;;
49372;SDS011;44113;38.408;-122.974;2022-10-31T15:14:26;3.97;;;1.30;;
49372;SDS011;44113;38.408;-122.974;2022-10-31T15:16:55;1.65;;;0.65;;
49372;SDS011;44113;38.408;-122.974;2022-10-31T15:19:23;4.95;;;1.00;;
49372;SDS011;44113;38.408;-122.974;2022-10-31T15:21:52;2.70;;;0.90;;
49372;SDS011;44113;38.408;-122.974;2022-10-31T15:24:20;2.22;;;0.90;;
49372;SDS011;44113;38.408;-122.974;2022-10-31T15:26:49;4.28;;;1.13;;
49372;SDS011;44113;38.408;-122.974;2022-10-31T15:29:19;2.13;;;0.70;;
49372;SDS011;44113;38.408;-122.974;2022-10-31T15:31:51;1.75;;;0.90;;
49372;SDS011;44113;38.408;-122.974;2022-10-31T15:37:01;7.80;;;2.05;;
49372;SDS011;44113;38.408;-122.974;2022-10-31T15:39:28;3.00;;;0.98;;
49372;SDS011;44113;38.408;-122.974;2022-10-31T15:41:56;2.47;;;1.38;;
49372;SDS011;44113;38.408;-122.974;2022-10-31T15:44:30;3.35;;;0.95;;
49372;SDS011;44113;38.408;-122.974;2022-10-31T15:47:03;4.45;;;1.42;;
49372;SDS011;44113;38.408;-122.974;2022-10-31T15:55:00;3.13;;;1.05;;
49372;SDS011;44113;38.408;-122.974;2022-10-31T15:57:42;2.10;;;1.10;;
49372;SDS011;44113;38.408;-122.974;2022-10-31T16:00:28;27.50;;;2.30;;
49372;SDS011;44113;38.408;-122.974;2022-10-31T16:05:38;2.23;;;0.97;;
49372;SDS011;44113;38.408;-122.974;2022-10-31T16:08:20;3.85;;;1.42;;
49372;SDS011;44113;38.408;-122.974;2022-10-31T16:13:33;3.25;;;1.38;;
49372;SDS011;44113;38.408;-122.974;2022-10-31T16:16:11;3.50;;;1.88;;
49372;SDS011;44113;38.408;-122.974;2022-10-31T16:18:40;1.80;;;0.47;;
49372;SDS011;44113;38.408;-122.974;2022-10-31T16:21:08;5.05;;;1.00;;
49372;SDS011;44113;38.408;-122.974;2022-10-31T16:23:35;3.67;;;1.05;;
49372;SDS011;44113;38.408;-122.974;2022-10-31T16:26:07;2.72;;;1.05;;
49372;SDS011;44113;38.408;-122.974;2022-10-31T16:28:34;5.20;;;1.02;;
49372;SDS011;44113;38.408;-122.974;2022-10-31T16:31:06;3.40;;;0.75;;
49372;SDS011;44113;38.408;-122.974;2022-10-31T16:33:39;3.58;;;1.05;;
49372;SDS011;44113;38.408;-122.974;2022-10-31T16:38:55;4.25;;;0.77;;
49372;SDS011;44113;38.408;-122.974;2022-10-31T16:41:23;1.48;;;0.60;;
49372;SDS011;44113;38.408;-122.974;2022-10-31T16:43:52;6.47;;;1.17;;
49372;SDS011;44113;38.408;-122.974;2022-10-31T16:46:22;8.23;;;1.23;;
49372;SDS011;44113;38.408;-122.974;2022-10-31T16:48:52;2.03;;;0.80;;
49372;SDS011;44113;38.408;-122.974;2022-10-31T16:51:20;3.63;;;0.77;;
49372;SDS011;44113;38.408;-122.974;2022-10-31T16:53:46;4.63;;;1.00;;
49372;SDS011;44113;38.408;-122.974;2022-10-31T16:56:29;4.20;;;0.95;;
49372;SDS011;44113;38.408;-122.974;2022-10-31T16:59:01;1.98;;;0.63;;
49372;SDS011;44113;38.408;-122.974;2022-10-31T17:01:32;2.35;;;1.00;;
49372;SDS011;44113;38.408;-122.974;2022-10-31T17:04:00;5.72;;;1.10;;
49372;SDS011;44113;38.408;-122.974;2022-10-31T17:06:27;3.08;;;1.20;;
49372;SDS011;44113;38.408;-122.974;2022-10-31T17:08:54;3.35;;;0.60;;
49372;SDS011;44113;38.408;-122.974;2022-10-31T17:11:21;4.50;;;1.15;;
49372;SDS011;44113;38.408;-122.974;2022-10-31T17:13:50;2.55;;;0.80;;
49372;SDS011;44113;38.408;-122.974;2022-10-31T17:16:19;3.22;;;1.00;;
49372;SDS011;44113;38.408;-122.974;2022-10-31T17:18:45;1.83;;;1.05;;
49372;SDS011;44113;38.408;-122.974;2022-10-31T17:21:22;3.55;;;0.80;;
49372;SDS011;44113;38.408;-122.974;2022-10-31T17:23:50;3.53;;;1.00;;
49372;SDS011;44113;38.408;-122.974;2022-10-31T17:26:17;1.88;;;0.60;;